Aviation Digital Data Service (ADDS)

Output produced by METARs form (0545 UTC 18 October 2018)
found at http://aviationweather.gov/metar/data/
 
KIAH 180515Z 02009KT 10SM OVC016 15/12 A3027 RMK AO2 T01500122
KIAH 180453Z 01011KT 10SM OVC013 14/13 A3026 RMK AO2 SLP246 T01440128
KIAH 180520Z 1806/1912 01012KT P6SM OVC012 
     FM180800 02010KT 3SM -RA BR OVC006 
     FM181400 03012KT P6SM OVC010 
     FM181900 04012KT P6SM OVC015 
     FM190400 03009KT P6SM OVC025